Map

Track Data

SID SEASON NUMBER BASIN SUBBASIN NAME ISO_TIME NATURE LAT LON WMO_WIND WMO_PRES WMO_AGENCY TRACK_TYPE DIST2LAND LANDFALL IFLAG USA_AGENCY USA_ATCF_ID USA_LAT USA_LON USA_RECORD USA_STATUS USA_WIND USA_PRES USA_SSHS USA_R34_NE USA_R34_SE USA_R34_SW USA_R34_NW USA_R50_NE USA_R50_SE USA_R50_SW USA_R50_NW USA_R64_NE USA_R64_SE USA_R64_SW USA_R64_NW USA_POCI USA_ROCI USA_RMW USA_EYE TOKYO_LAT TOKYO_LON TOKYO_GRADE TOKYO_WIND TOKYO_PRES TOKYO_R50_DIR TOKYO_R50_LONG TOKYO_R50_SHORT TOKYO_R30_DIR TOKYO_R30_LONG TOKYO_R30_SHORT TOKYO_LAND CMA_LAT CMA_LON CMA_CAT CMA_WIND CMA_PRES HKO_LAT HKO_LON HKO_CAT HKO_WIND HKO_PRES NEWDELHI_LAT NEWDELHI_LON NEWDELHI_GRADE NEWDELHI_WIND NEWDELHI_PRES NEWDELHI_CI NEWDELHI_DP NEWDELHI_POCI REUNION_LAT REUNION_LON REUNION_TYPE REUNION_WIND REUNION_PRES REUNION_TNUM REUNION_CI REUNION_RMW REUNION_R34_NE REUNION_R34_SE REUNION_R34_SW REUNION_R34_NW REUNION_R50_NE REUNION_R50_SE REUNION_R50_SW REUNION_R50_NW REUNION_R64_NE REUNION_R64_SE REUNION_R64_SW REUNION_R64_NW BOM_LAT BOM_LON BOM_TYPE BOM_WIND BOM_PRES BOM_TNUM BOM_CI BOM_RMW BOM_R34_NE BOM_R34_SE BOM_R34_SW BOM_R34_NW BOM_R50_NE BOM_R50_SE BOM_R50_SW BOM_R50_NW BOM_R64_NE BOM_R64_SE BOM_R64_SW BOM_R64_NW BOM_ROCI BOM_POCI BOM_EYE BOM_POS_METHOD BOM_PRES_METHOD NADI_LAT NADI_LON NADI_CAT NADI_WIND NADI_PRES WELLINGTON_LAT WELLINGTON_LON WELLINGTON_WIND WELLINGTON_PRES DS824_LAT DS824_LON DS824_STAGE DS824_WIND DS824_PRES TD9636_LAT TD9636_LON TD9636_STAGE TD9636_WIND TD9636_PRES TD9635_LAT TD9635_LON TD9635_WIND TD9635_PRES TD9635_ROCI NEUMANN_LAT NEUMANN_LON NEUMANN_CLASS NEUMANN_WIND NEUMANN_PRES MLC_LAT MLC_LON MLC_CLASS MLC_WIND MLC_PRES USA_GUST BOM_GUST BOM_GUST_PER REUNION_GUST REUNION_GUST_PER USA_SEAHGT USA_SEARAD_NE USA_SEARAD_SE USA_SEARAD_SW USA_SEARAD_NW STORM_SPEED STORM_DIR
1925232N17142 1925 37 WP MM NOT_NAMED 1925-08-19 22:00:00 NR 16.8000 142.300 main 1880 1880 __________O___ -1 16.8000 142.300 7 7 7
1925232N17142 1925 37 WP MM NOT_NAMED 1925-08-20 00:00:00 NR 17.0290 142.321 main 1885 1885 __________P___ -1 17.0290 142.321 7 7 5
1925232N17142 1925 37 WP MM NOT_NAMED 1925-08-20 03:00:00 NR 17.3742 142.351 main 1904 1873 __________P___ -1 17.3742 142.351 7 7 5
1925232N17142 1925 37 WP MM NOT_NAMED 1925-08-20 06:00:00 NR 17.7235 142.376 main 1873 1831 __________P___ -1 17.7235 142.376 7 7 4
1925232N17142 1925 37 WP MM NOT_NAMED 1925-08-20 09:00:00 NR 18.0794 142.396 main 1831 1820 __________P___ -1 18.0794 142.396 7 7 0
1925232N17142 1925 37 WP MM NOT_NAMED 1925-08-20 10:00:00 NR 18.2000 142.400 main 1820 1799 __________O___ -1 18.2000 142.400 7 7 3
1925232N17142 1925 37 WP MM NOT_NAMED 1925-08-20 12:00:00 NR 18.4438 142.406 main 1799 1757 __________P___ -1 18.4438 142.406 7 7 3
1925232N17142 1925 37 WP MM NOT_NAMED 1925-08-20 15:00:00 NR 18.8098 142.408 main 1757 1715 __________P___ -1 18.8098 142.408 7 7 0
1925232N17142 1925 37 WP MM NOT_NAMED 1925-08-20 18:00:00 NR 19.1649 142.406 main 1715 1684 __________P___ -1 19.1649 142.406 7 7 0
1925232N17142 1925 37 WP MM NOT_NAMED 1925-08-20 21:00:00 NR 19.4967 142.401 main 1684 1674 __________P___ -1 19.4967 142.401 7 7 359
1925232N17142 1925 37 WP MM NOT_NAMED 1925-08-20 22:00:00 NR 19.6000 142.400 main 1674 1653 __________O___ -1 19.6000 142.400 7 6 356
1925232N17142 1925 37 WP MM NOT_NAMED 1925-08-21 00:00:00 NR 19.7895 142.400 main 1653 1632 __________P___ -1 19.7895 142.400 7 5 4
1925232N17142 1925 37 WP MM NOT_NAMED 1925-08-21 03:00:00 NR 20.0485 142.400 main 1632 1601 __________P___ -1 20.0485 142.400 7 5 0
1925232N17142 1925 37 WP MM NOT_NAMED 1925-08-21 06:00:00 NR 20.2884 142.400 main 1601 1580 __________P___ -1 20.2884 142.400 7 5 1
1925232N17142 1925 37 WP MM NOT_NAMED 1925-08-21 09:00:00 NR 20.5216 142.400 main 1580 1570 __________P___ -1 20.5216 142.400 7 5 0
1925232N17142 1925 37 WP MM NOT_NAMED 1925-08-21 10:00:00 NR 20.6000 142.400 main 1570 1550 __________O___ -1 20.6000 142.400 7 5 0
1925232N17142 1925 37 WP MM NOT_NAMED 1925-08-21 12:00:00 NR 20.7719 142.400 main 1550 1529 __________P___ -1 20.7719 142.400 7 5 0
1925232N17142 1925 37 WP MM NOT_NAMED 1925-08-21 15:00:00 NR 21.0299 142.400 main 1529 1498 __________P___ -1 21.0299 142.400 7 5 3
1925232N17142 1925 37 WP MM NOT_NAMED 1925-08-21 18:00:00 NR 21.2825 142.400 main 1498 1478 __________P___ -1 21.2825 142.400 7 5 3
1925232N17142 1925 37 WP MM NOT_NAMED 1925-08-21 21:00:00 NR 21.5234 142.400 main 1478 1468 __________P___ -1 21.5234 142.400 7 5 0
1925232N17142 1925 37 WP MM NOT_NAMED 1925-08-21 22:00:00 NR 21.6000 142.400 main 1468 1458 __________O___ -1 21.6000 142.400 7 4 0
1925232N17142 1925 37 WP MM NOT_NAMED 1925-08-22 00:00:00 NR 21.7369 142.403 main 1458 1437 __________P___ -1 21.7369 142.403 7 4 0
1925232N17142 1925 37 WP MM NOT_NAMED 1925-08-22 03:00:00 NR 21.9294 142.407 main 1437 1417 __________P___ -1 21.9294 142.407 7 4 0
1925232N17142 1925 37 WP MM NOT_NAMED 1925-08-22 06:00:00 NR 22.1205 142.408 main 1417 1397 __________P___ -1 22.1205 142.408 7 4 0
1925232N17142 1925 37 WP MM NOT_NAMED 1925-08-22 09:00:00 NR 22.3257 142.403 main 1397 1387 __________P___ -1 22.3257 142.403 7 4 358
1925232N17142 1925 37 WP MM NOT_NAMED 1925-08-22 10:00:00 NR 22.4000 142.400 main 1387 1367 __________O___ -1 22.4000 142.400 7 5 0
1925232N17142 1925 37 WP MM NOT_NAMED 1925-08-22 12:00:00 NR 22.5767 142.394 main 1367 1337 __________P___ -1 22.5767 142.394 7 6 357
1925232N17142 1925 37 WP MM NOT_NAMED 1925-08-22 15:00:00 NR 22.8609 142.379 main 1337 1317 __________P___ -1 22.8609 142.379 7 6 356
1925232N17142 1925 37 WP MM NOT_NAMED 1925-08-22 18:00:00 NR 23.1486 142.355 main 1317 1283 __________P___ -1 23.1486 142.355 7 6 355
1925232N17142 1925 37 WP MM NOT_NAMED 1925-08-22 21:00:00 NR 23.4180 142.316 main 1283 1273 __________P___ -1 23.4180 142.316 7 5 351
1925232N17142 1925 37 WP MM NOT_NAMED 1925-08-22 22:00:00 NR 23.5000 142.300 main 1273 1263 __________O___ -1 23.5000 142.300 3 5 347
1925232N17142 1925 37 WP MM NOT_NAMED 1925-08-23 00:00:00 NR 23.6395 142.259 main 1263 1239 __________P___ -1 23.6395 142.259 3 4 342
1925232N17142 1925 37 WP MM NOT_NAMED 1925-08-23 03:00:00 NR 23.8236 142.184 main 1239 1214 __________P___ -1 23.8236 142.184 3 4 338
1925232N17142 1925 37 WP MM NOT_NAMED 1925-08-23 06:00:00 NR 23.9884 142.103 main 1214 1200 __________P___ -1 23.9884 142.103 3 4 335
1925232N17142 1925 37 WP MM NOT_NAMED 1925-08-23 09:00:00 NR 24.1466 142.024 main 1200 1190 __________P___ -1 24.1466 142.024 3 3 335
1925232N17142 1925 37 WP MM NOT_NAMED 1925-08-23 10:00:00 NR 24.2000 142.000 main 1190 1180 __________O___ -1 24.2000 142.000 4 3 342
1925232N17142 1925 37 WP MM NOT_NAMED 1925-08-23 12:00:00 NR 24.3061 141.966 main 1180 1156 __________P___ -1 24.3061 141.966 4 3 345
1925232N17142 1925 37 WP MM NOT_NAMED 1925-08-23 15:00:00 NR 24.4651 141.922 main 1156 1146 __________P___ -1 24.4651 141.922 4 3 347
1925232N17142 1925 37 WP MM NOT_NAMED 1925-08-23 18:00:00 NR 24.6350 141.877 main 1146 1122 __________P___ -1 24.6350 141.877 4 4 347
1925232N17142 1925 37 WP MM NOT_NAMED 1925-08-23 21:00:00 NR 24.8282 141.822 main 1122 1112 __________P___ -1 24.8282 141.822 4 4 345
1925232N17142 1925 37 WP MM NOT_NAMED 1925-08-23 22:00:00 NR 24.9000 141.800 main 1112 1093 __________O___ -1 24.9000 141.800 4 5 344
1925232N17142 1925 37 WP MM NOT_NAMED 1925-08-24 00:00:00 NR 25.0631 141.753 main 1093 1068 __________P___ -1 25.0631 141.753 4 5 344
1925232N17142 1925 37 WP MM NOT_NAMED 1925-08-24 03:00:00 NR 25.3330 141.669 main 1068 1034 __________P___ -1 25.3330 141.669 4 6 343
1925232N17142 1925 37 WP MM NOT_NAMED 1925-08-24 06:00:00 NR 25.6194 141.568 main 1034 995 __________P___ -1 25.6194 141.568 4 6 341
1925232N17142 1925 37 WP MM NOT_NAMED 1925-08-24 09:00:00 NR 25.9067 141.446 main 995 986 __________P___ -1 25.9067 141.446 4 6 338
1925232N17142 1925 37 WP MM NOT_NAMED 1925-08-24 10:00:00 NR 26.0000 141.400 main 986 962 __________O___ -1 26.0000 141.400 4 6 335
1925232N17142 1925 37 WP MM NOT_NAMED 1925-08-24 12:00:00 NR 26.1645 141.305 main 962 932 __________P___ -1 26.1645 141.305 4 6 331
1925232N17142 1925 37 WP MM NOT_NAMED 1925-08-24 15:00:00 NR 26.4047 141.145 main 932 908 __________P___ -1 26.4047 141.145 4 6 328
1925232N17142 1925 37 WP MM NOT_NAMED 1925-08-24 18:00:00 NR 26.6483 140.965 main 908 869 __________P___ -1 26.6483 140.965 4 6 326
1925232N17142 1925 37 WP MM NOT_NAMED 1925-08-24 21:00:00 NR 26.9078 140.769 main 869 854 __________P___ -1 26.9078 140.769 4 6 326
1925232N17142 1925 37 WP MM NOT_NAMED 1925-08-24 22:00:00 NR 27.0000 140.700 main 854 830 __________O___ -1 27.0000 140.700 4 7 330
1925232N17142 1925 37 WP MM NOT_NAMED 1925-08-25 00:00:00 NR 27.2073 140.572 main 830 791 __________P___ -1 27.2073 140.572 4 7 331
1925232N17142 1925 37 WP MM NOT_NAMED 1925-08-25 03:00:00 NR 27.5373 140.367 main 791 738 __________P___ -1 27.5373 140.367 4 8 330
1925232N17142 1925 37 WP MM NOT_NAMED 1925-08-25 06:00:00 NR 27.8737 140.142 main 738 699 __________P___ -1 27.8737 140.142 4 8 327
1925232N17142 1925 37 WP MM NOT_NAMED 1925-08-25 09:00:00 NR 28.1979 139.891 main 699 684 __________P___ -1 28.1979 139.891 4 8 325
1925232N17142 1925 37 WP MM NOT_NAMED 1925-08-25 10:00:00 NR 28.3000 139.800 main 684 655 __________O___ -1 28.3000 139.800 4 8 320
1925232N17142 1925 37 WP MM NOT_NAMED 1925-08-25 12:00:00 NR 28.4924 139.607 main 655 611 __________P___ -1 28.4924 139.607 4 8 316
1925232N17142 1925 37 WP MM NOT_NAMED 1925-08-25 15:00:00 NR 28.7559 139.295 main 611 577 __________P___ -1 28.7559 139.295 4 8 312
1925232N17142 1925 37 WP MM NOT_NAMED 1925-08-25 18:00:00 NR 28.9972 138.962 main 577 538 __________P___ -1 28.9972 138.962 4 8 308
1925232N17142 1925 37 WP MM NOT_NAMED 1925-08-25 21:00:00 NR 29.2253 138.617 main 538 524 __________P___ -1 29.2253 138.617 4 8 307
1925232N17142 1925 37 WP MM NOT_NAMED 1925-08-25 22:00:00 NR 29.3000 138.500 main 524 __________O___ -1 29.3000 138.500 2 8 305

Digital Typhoon Data and Search

About IBTrACS Database

This database is a web-friendly format of International Best Track Archive for Climate Stewardship (IBTrACS), a global best track data archive curated by NOAA dating back to 1842.

Updated: 2021-12-01